DIRECCIÓN GENERAL DE AERONÁUTICA CIVIL
DIRECCIÓN METEOROLÓGICA DE CHILE
INFORMACIÓN METAR Y TAF

FIR SANTIAGO

Estación: SCSE
METAR SCSE 031200Z 00000KT 0050 FG VV000 12/11 Q1015=

TAF SCSE 031000Z 0312/0412 00000KT 8000 BKN010 TX21/0318Z TN14/0410Z BECMG 0315/0317 28008KT BKN015 BECMG 0319/0321 SCT020 TEMPO 0402/0406 VRB02KT FEW010 BECMG 0410/0412 36005KT BKN010=

Estación: SCER
METAR SCER 161100Z 00000KT 7000 OVC014 12/10 Q1015=

TAF SCER NIL=

Estación: SCRD
METAR SCRD 031200Z 18003KT CAVOK 15/11 Q1016=

TAF SCRD 031006Z 0312/0324 VRB02KT CAVOK TX21/0318Z TN13/0312Z TEMPO 0312/0316 20005KT 2000 BR OVC005 BECMG 0318/0320 20008KT=

Estación: SCVM
METAR SCVM 031200Z 00000KT CAVOK 13/12 Q1016=

TAF SCVM 031001Z 0312/0412 00000KT CAVOK TX23/0318Z TN13/0410Z TEMPO 0312/0315 2000 BR BKN008 BECMG 0315/0317 33008KT SCT015 BECMG 0318/ 0320 CAVOK BECMG 0400/0402 00000KT TEMPO 0408/0412 32004KT 7000 BKN010=

Estación: SCTB
METAR SCTB 031200Z 00000KT 8000 SCT150 13/10 Q1018=

TAF SCTB 031007Z 0312/0324 01005KT 9999 BKN120 TX25/0318Z TN12/0312Z TEMPO 0312/0316 VRB02KT 5000 HZ SCT100 BECMG 0322/0324 23005KT CAVOK=

Estación: SCEL
METAR SCEL 031200Z 04004KT 010V070 3000 BR SCT180 13/11 Q1017 BECMG 5000 HZ=

TAF SCEL 031004Z 0312/0412 VRB02KT 6000 SCT130 TX25/0318Z TN12/0410Z BECMG 0314/0316 17006KT 7000 BKN160 BECMG 0318/0320 22008KT 9999 BKN130 BECMG 0400/0402 16005KT CAVOK TEMPO 0408/0412 VRB02KT 5000 HZ NSC=

Estación: SCSN
METAR SCSN 031200Z 00000KT 6000 NSC 10/10 Q1016=

TAF SCSN 031005Z 0312/0324 11005KT CAVOK TX21/0318Z TN12/0312Z TEMPO 0312/0316 20005KT 5000 BR NSC=

Estación: SCRG
METAR SCRG 031200Z 15003KT 4000 HZ NSC 10/10 Q1017=

TAF SCRG 031008Z 0312/0324 02005KT 9999 BKN130 TX26/0318Z TN10/0312Z BECMG 0315/0317 20005KT SCT100 TEMPO 0318/0322 VRB02KT BECMG 0322/ 0324 CAVOK=

Estación: SCIC
METAR SCIC 031200Z VRB02KT 0150 FG VV/// 12/12 Q1017=

TAF SCIC 031009Z 0312/0324 11005KT 1500 BR BKN005 TX22/0318Z TN10/ 0312Z TEMPO 0312/0315 0500 FG OVC002 BECMG 0315/0317 22005KT 3000 BR SCT008 BECMG 0320/0322 7000 SCT010=

Estación: SCCH
METAR SCCH 031200Z 19004KT 0050 FG VV000 08/08 Q1019=

TAF SCCH 031010Z 0312/0324 VRB02KT 2000 BR NSC TX20/0318Z TN09/0312Z TEMPO 0312/0315 00000KT 0500 FG VV001 BECMG 0315/0317 20005KT 3000 HZ BKN010 BKN080 BECMG 0318/0320 22010KT BKN070=

Estación: SCIE
METAR SCIE 031200Z 18003KT 4000 BR FEW004 BKN200 10/10 Q1019=

TAF SCIE 031005Z 0312/0412 14005KT 0500 FG OVC002 TX20/0318Z TN10/ 0410Z BECMG 0314/0316 2000 BKN090 BECMG 0315/0317 21010KT BKN070 BECMG 0318/0320 24008KT BKN080 TEMPO 0322/0402 8000 FEW010 BKN050 BECMG 0404/0406 14005KT SCT050 BKN060 TEMPO 0408/0412 SCT060=

Estación: SCGE
METAR SCGE 031200Z 00000KT 0050 FG VV000 06/06 Q1019=

TAF SCGE 031011Z 0312/0324 00000KT 5000 BR BKN010 TX17/0318Z TN08/ 0312Z TEMPO 0312/0316 0700 FG VV002 BECMG 0316/0318 20005KT 9999 BKN060=


Volver